createdAt,value
2017-10-21T00:00:22.819Z,2.7
2017-10-21T00:01:22.768Z,2.5
2017-10-21T00:02:22.760Z,2.3
2017-10-21T00:03:22.792Z,2.1
2017-10-21T00:04:22.769Z,2.1
2017-10-21T00:05:22.752Z,1.9
2017-10-21T00:06:22.748Z,2
2017-10-21T00:07:22.756Z,1.9
2017-10-21T00:08:22.766Z,1.8
2017-10-21T00:09:22.758Z,1.9
2017-10-21T00:10:22.752Z,2
2017-10-21T00:11:22.762Z,2.3
2017-10-21T00:12:22.773Z,2.2
2017-10-21T00:13:22.750Z,2.3
2017-10-21T00:14:22.750Z,2.2
2017-10-21T00:15:22.766Z,2
2017-10-21T00:16:22.741Z,1.9
2017-10-21T00:17:22.754Z,1.9
2017-10-21T00:18:22.743Z,1.9
2017-10-21T00:19:22.743Z,1.8
2017-10-21T00:20:22.742Z,2.2
2017-10-21T00:21:22.755Z,2.2
2017-10-21T00:22:22.759Z,2.3
2017-10-21T00:23:22.750Z,2.6
2017-10-21T00:24:22.743Z,2.6
2017-10-21T00:25:22.754Z,2.5
2017-10-21T00:26:22.791Z,2.8
2017-10-21T00:27:22.747Z,2.8
2017-10-21T00:28:22.753Z,2.7
2017-10-21T00:29:22.764Z,2.7
2017-10-21T00:30:22.745Z,2.8
2017-10-21T00:31:22.784Z,2.9
2017-10-21T00:32:22.740Z,3.1
2017-10-21T00:33:22.744Z,3.1
2017-10-21T00:34:22.748Z,3.1
2017-10-21T00:35:22.755Z,2.9
2017-10-21T00:36:22.796Z,3.1
2017-10-21T00:37:22.771Z,2.9
2017-10-21T00:38:22.764Z,2.7
2017-10-21T00:39:22.740Z,2.9
2017-10-21T00:40:22.750Z,2.9
2017-10-21T00:41:22.818Z,2.8
2017-10-21T00:42:22.758Z,2.9
2017-10-21T00:43:22.748Z,3.2
2017-10-21T00:44:22.735Z,3
2017-10-21T00:45:22.753Z,3
2017-10-21T00:46:22.795Z,3.4
2017-10-21T00:47:22.736Z,3.3
2017-10-21T00:48:22.736Z,3.5
2017-10-21T00:49:22.746Z,4
2017-10-21T00:50:22.750Z,4.3
2017-10-21T00:51:22.803Z,4.7
2017-10-21T00:52:22.737Z,4.7
2017-10-21T00:53:22.735Z,4.9
2017-10-21T00:54:22.740Z,5.1
2017-10-21T00:55:22.746Z,5.2
2017-10-21T00:56:22.785Z,5.2
2017-10-21T00:57:22.742Z,5.4
2017-10-21T00:58:22.755Z,5.5
2017-10-21T00:59:22.740Z,5.6
2017-10-21T01:00:22.728Z,5.6
2017-10-21T01:01:22.804Z,5.6
2017-10-21T01:02:22.746Z,5.3
2017-10-21T01:03:22.742Z,5
2017-10-21T01:04:22.742Z,4.7
2017-10-21T01:05:22.751Z,5.2
2017-10-21T01:06:22.798Z,5.4
2017-10-21T01:07:22.751Z,5.8
2017-10-21T01:08:22.743Z,5.6
2017-10-21T01:09:22.748Z,6
2017-10-21T01:10:22.722Z,6.5
2017-10-21T01:11:22.763Z,7
2017-10-21T01:12:22.744Z,7
2017-10-21T01:13:22.748Z,7.5
2017-10-21T01:14:22.726Z,7.8
2017-10-21T01:15:22.752Z,7.9
2017-10-21T01:16:22.789Z,7.5
2017-10-21T01:17:22.742Z,7.5
2017-10-21T01:18:22.728Z,7.4
2017-10-21T01:19:22.731Z,7.2
2017-10-21T01:20:22.748Z,7.6
2017-10-21T01:21:22.790Z,7.7
2017-10-21T01:22:22.737Z,7.9
2017-10-21T01:23:22.734Z,7.9
2017-10-21T01:24:22.739Z,7.8
2017-10-21T01:25:22.723Z,8
2017-10-21T01:26:22.805Z,8
2017-10-21T01:27:22.742Z,8
2017-10-21T01:28:22.722Z,7.9
2017-10-21T01:29:22.789Z,7.6
2017-10-21T01:30:22.734Z,7.6
2017-10-21T01:31:22.785Z,7.5
2017-10-21T01:32:22.728Z,7.7
2017-10-21T01:33:22.724Z,7.7
2017-10-21T01:34:22.737Z,7.7
2017-10-21T01:35:22.722Z,7.9
2017-10-21T01:36:22.796Z,7.9
2017-10-21T01:37:22.721Z,7.8
2017-10-21T01:38:22.749Z,8
2017-10-21T01:39:22.747Z,8.3
2017-10-21T01:40:22.718Z,8.1
2017-10-21T01:41:22.804Z,8.3
2017-10-21T01:42:22.718Z,8.5
2017-10-21T01:43:22.727Z,8.7
2017-10-21T01:44:22.717Z,8.9
2017-10-21T01:45:22.724Z,9.2
2017-10-21T01:46:22.764Z,9.6
2017-10-21T01:47:22.735Z,9.5
2017-10-21T01:48:22.735Z,9.7
2017-10-21T01:49:22.729Z,9.7
2017-10-21T01:50:22.728Z,10.2
2017-10-21T01:51:22.796Z,10.3
2017-10-21T01:52:22.716Z,10.4
2017-10-21T01:53:22.716Z,10.6
2017-10-21T01:54:22.733Z,11
2017-10-21T01:55:22.715Z,11.3
2017-10-21T01:56:22.770Z,11.2
2017-10-21T01:57:22.713Z,11.4
2017-10-21T01:58:22.727Z,11.7
2017-10-21T01:59:22.713Z,11.6
2017-10-21T02:00:22.734Z,11.6
2017-10-21T02:01:22.708Z,11.8
2017-10-21T02:02:22.727Z,12.3
2017-10-21T02:03:22.712Z,12.4
2017-10-21T02:04:22.723Z,12.4
2017-10-21T02:05:22.722Z,12.7
2017-10-21T02:06:22.738Z,12.7
2017-10-21T02:07:22.723Z,12.7
2017-10-21T02:08:22.707Z,12.8
2017-10-21T02:09:22.730Z,13
2017-10-21T02:10:22.707Z,12.7
2017-10-21T02:11:22.732Z,12.4
2017-10-21T02:12:22.729Z,12.5
2017-10-21T02:13:22.710Z,12.4
2017-10-21T02:14:22.725Z,12.4
2017-10-21T02:15:22.704Z,12.4
2017-10-21T02:16:22.705Z,12.5
2017-10-21T02:17:22.724Z,12.8
2017-10-21T02:18:22.716Z,12.9
2017-10-21T02:19:22.708Z,12.7
2017-10-21T02:20:22.706Z,12.2
2017-10-21T02:21:22.703Z,11.8
2017-10-21T02:22:22.703Z,11.5
2017-10-21T02:23:22.711Z,11.3
2017-10-21T02:24:22.710Z,10.7
2017-10-21T02:25:22.707Z,10.3
2017-10-21T02:26:22.700Z,9.6
2017-10-21T02:27:22.710Z,9.1
2017-10-21T02:28:22.722Z,8.8
2017-10-21T02:29:22.716Z,8.5
2017-10-21T02:30:22.704Z,8.4
2017-10-21T02:31:22.709Z,8.1
2017-10-21T02:32:22.711Z,7.8
2017-10-21T02:33:22.723Z,7.7
2017-10-21T02:34:22.698Z,7.4
2017-10-21T02:35:22.698Z,6.8
2017-10-21T02:36:22.711Z,6.6
2017-10-21T02:37:22.713Z,6.2
2017-10-21T02:38:22.718Z,5.8
2017-10-21T02:39:22.699Z,5.6
2017-10-21T02:40:22.710Z,5.6
2017-10-21T02:41:22.724Z,5.8
2017-10-21T02:42:22.697Z,5.7
2017-10-21T02:43:22.713Z,5.4
2017-10-21T02:44:22.697Z,5.3
2017-10-21T02:45:22.694Z,5
2017-10-21T02:46:22.719Z,5.2
2017-10-21T02:47:22.696Z,4.8
2017-10-21T02:48:22.719Z,4.5
2017-10-21T02:49:22.714Z,4.2
2017-10-21T02:50:22.693Z,4.2
2017-10-21T02:51:22.690Z,3.9
2017-10-21T02:52:22.715Z,3.7
2017-10-21T02:53:22.710Z,3.5
2017-10-21T02:54:22.717Z,3.3
2017-10-21T02:55:22.714Z,3.3
2017-10-21T02:56:22.707Z,3.3
2017-10-21T02:57:22.691Z,3.1
2017-10-21T02:58:22.687Z,2.9
2017-10-21T02:59:22.716Z,2.7
2017-10-21T03:00:22.692Z,2.6
2017-10-21T03:01:22.716Z,2.6
2017-10-21T03:02:22.691Z,2.4
2017-10-21T03:03:22.695Z,2.3
2017-10-21T03:04:22.704Z,2.1
2017-10-21T03:05:22.692Z,2.1
2017-10-21T03:06:22.696Z,2.1
2017-10-21T03:07:22.711Z,2.1
2017-10-21T03:08:22.709Z,2.1
2017-10-21T03:09:22.705Z,2.1
2017-10-21T03:14:22.681Z,1.6
2017-10-21T03:15:22.706Z,1.6
2017-10-21T03:16:22.685Z,1.6
2017-10-21T03:17:22.729Z,1.5
2017-10-21T03:18:22.701Z,1.4
2017-10-21T03:19:26.218Z,1.4
2017-10-21T03:20:25.973Z,1.3
2017-10-21T03:21:22.710Z,1.2
2017-10-21T03:22:22.727Z,1.1
2017-10-21T03:23:22.683Z,1
2017-10-21T03:24:22.680Z,1
2017-10-21T03:25:22.683Z,0.9
2017-10-21T03:26:22.682Z,0.8
2017-10-21T03:27:22.752Z,0.8
2017-10-21T03:28:22.684Z,0.8
2017-10-21T03:29:22.687Z,1
2017-10-21T03:30:22.696Z,1
2017-10-21T03:31:22.682Z,1
2017-10-21T03:32:22.731Z,0.9
2017-10-21T03:33:22.691Z,0.8
2017-10-21T03:34:32.253Z,0
2017-10-21T03:35:32.244Z,0.1
2017-10-21T03:36:32.247Z,0.1
2017-10-21T03:37:32.280Z,0.1
2017-10-21T03:38:32.239Z,0.3
2017-10-21T03:39:32.238Z,0.3
2017-10-21T03:40:32.260Z,0.4
2017-10-21T03:41:32.237Z,0.4
2017-10-21T03:42:32.303Z,0.7
2017-10-21T03:43:32.253Z,0.6
2017-10-21T03:44:32.247Z,0.6
2017-10-21T03:45:32.234Z,0.7
2017-10-21T03:46:32.247Z,0.7
2017-10-21T03:47:32.310Z,0.8
2017-10-21T03:48:32.232Z,0.8
2017-10-21T03:49:32.242Z,0.8
2017-10-21T03:50:32.240Z,0.9
2017-10-21T03:51:32.236Z,1.2
2017-10-21T03:52:32.290Z,1.3
2017-10-21T03:53:32.231Z,1.3
2017-10-21T03:54:32.231Z,1.3
2017-10-21T03:55:32.242Z,1.3
2017-10-21T03:56:32.255Z,1.6
2017-10-21T03:57:32.235Z,1.5
2017-10-21T03:58:32.232Z,1.5
2017-10-21T03:59:32.231Z,1.3
2017-10-21T04:00:32.252Z,1.3
2017-10-21T04:01:32.247Z,1.4
2017-10-21T04:02:32.237Z,1.4
2017-10-21T04:03:32.229Z,1.6
2017-10-21T04:04:32.246Z,1.6
2017-10-21T04:05:32.241Z,1.5
2017-10-21T04:06:32.231Z,1.4
2017-10-21T04:07:32.251Z,1.4
2017-10-21T04:08:32.230Z,1.3
2017-10-21T04:09:32.250Z,1.2
2017-10-21T04:10:32.229Z,1.1
2017-10-21T04:11:32.244Z,1
2017-10-21T04:12:32.227Z,1
2017-10-21T04:13:32.243Z,0.9
2017-10-21T04:14:32.222Z,0.8
2017-10-21T04:15:32.252Z,0.7
2017-10-21T04:16:32.239Z,0.7
2017-10-21T04:17:32.226Z,0.6
2017-10-21T04:18:32.243Z,0.6
2017-10-21T04:19:32.225Z,0.5
2017-10-21T04:20:32.223Z,0.6
2017-10-21T04:21:32.220Z,0.8
2017-10-21T04:22:32.219Z,0.8
2017-10-21T04:23:32.246Z,0.8
2017-10-21T04:24:32.220Z,0.9
2017-10-21T04:25:32.243Z,1
2017-10-21T04:26:32.223Z,1.1
2017-10-21T04:27:32.224Z,1.2
2017-10-21T04:28:32.235Z,1.4
2017-10-21T04:29:32.255Z,1.5
2017-10-21T04:30:32.222Z,1.6
2017-10-21T04:31:32.238Z,1.5
2017-10-21T04:32:32.238Z,1.5
2017-10-21T04:33:32.225Z,1.5
2017-10-21T04:34:32.220Z,1.5
2017-10-21T04:35:32.230Z,1.5
2017-10-21T04:36:32.223Z,1.5
2017-10-21T04:37:32.214Z,1.3
2017-10-21T04:38:32.228Z,1.2
2017-10-21T04:39:32.260Z,1.2
2017-10-21T04:40:32.228Z,1.2
2017-10-21T04:41:32.214Z,1.2
2017-10-21T04:42:32.237Z,1.3
2017-10-21T04:43:32.213Z,1.4
2017-10-21T04:44:32.234Z,1.4
2017-10-21T04:45:32.213Z,1.5
2017-10-21T04:46:32.214Z,1.6
2017-10-21T04:47:32.211Z,1.6
2017-10-21T04:48:32.214Z,1.5
2017-10-21T04:49:32.216Z,1.6
2017-10-21T04:50:32.277Z,1.6
2017-10-21T04:51:32.212Z,1.5
2017-10-21T04:52:32.236Z,1.5
2017-10-21T04:53:32.207Z,1.4
2017-10-21T04:54:32.213Z,1.3
2017-10-21T04:55:32.217Z,1.3
2017-10-21T04:56:32.212Z,1.1
2017-10-21T04:57:32.223Z,1.1
2017-10-21T04:58:32.217Z,1.2
2017-10-21T04:59:32.210Z,1.2
2017-10-21T05:00:32.275Z,1.2
2017-10-21T05:01:32.231Z,1.2
2017-10-21T05:02:32.232Z,1.2
2017-10-21T05:03:32.254Z,1
2017-10-21T05:04:32.211Z,1
2017-10-21T05:05:32.229Z,1
2017-10-21T05:06:32.212Z,1
2017-10-21T05:07:32.224Z,1
2017-10-21T05:08:32.275Z,1
2017-10-21T05:09:32.226Z,1.1
2017-10-21T05:10:32.219Z,1
2017-10-21T05:11:32.208Z,0.9
2017-10-21T05:12:32.218Z,0.8
2017-10-21T05:13:32.272Z,0.8
2017-10-21T05:14:32.221Z,0.8
2017-10-21T05:15:32.228Z,0.7
2017-10-21T05:16:32.205Z,0.8
2017-10-21T05:17:32.211Z,0.8
2017-10-21T05:18:32.207Z,0.8
2017-10-21T05:19:32.210Z,1
2017-10-21T05:20:32.220Z,1
2017-10-21T05:21:32.200Z,1
2017-10-21T05:22:32.201Z,0.9
2017-10-21T05:23:32.201Z,1.1
2017-10-21T05:24:32.207Z,1.2
2017-10-21T05:25:32.217Z,1.7
2017-10-21T05:26:32.216Z,1.8
2017-10-21T05:27:32.207Z,1.8
2017-10-21T05:28:32.223Z,1.7
2017-10-21T05:29:32.196Z,1.6
2017-10-21T05:30:32.211Z,1.7
2017-10-21T05:31:32.222Z,1.8
2017-10-21T05:32:32.218Z,1.7
2017-10-21T05:33:32.203Z,1.6
2017-10-21T05:34:32.182Z,1.5
2017-10-21T05:35:32.206Z,1.4
2017-10-21T05:36:32.212Z,1.3
2017-10-21T05:37:32.219Z,1.2
2017-10-21T05:38:32.210Z,1.1
2017-10-21T05:39:32.207Z,1
2017-10-21T05:40:32.195Z,0.9
2017-10-21T05:41:32.206Z,0.9
2017-10-21T05:42:32.223Z,0.9
2017-10-21T05:43:32.195Z,0.8
2017-10-21T05:44:32.210Z,0.7
2017-10-21T05:45:32.193Z,0.7
2017-10-21T05:46:32.220Z,0.6
2017-10-21T05:47:32.192Z,0.5
2017-10-21T05:48:32.193Z,0.5
2017-10-21T05:49:33.380Z,0.5
2017-10-21T05:50:32.177Z,0.5
2017-10-21T05:51:32.221Z,0.4
2017-10-21T05:52:32.213Z,0.4
2017-10-21T05:53:35.607Z,0.3
2017-10-21T05:54:32.762Z,0.3
2017-10-21T05:55:32.235Z,0.3
2017-10-21T05:56:32.235Z,0.3
2017-10-21T05:57:32.340Z,0.3
2017-10-21T05:58:32.263Z,0.3
2017-10-21T05:59:32.320Z,0.3
2017-10-21T06:00:35.236Z,0.3
2017-10-21T06:01:32.193Z,0.2
2017-10-21T06:02:32.214Z,0.2
2017-10-21T06:03:32.322Z,0.2
2017-10-21T06:04:32.473Z,0.2
2017-10-21T06:05:32.368Z,0.2
2017-10-21T06:06:35.180Z,0.2
2017-10-21T06:07:32.190Z,0.2
2017-10-21T06:08:32.209Z,0.3
2017-10-21T06:09:32.344Z,0.2
2017-10-21T06:10:32.184Z,0.2
2017-10-21T06:11:32.220Z,0.3
2017-10-21T06:12:32.421Z,0.3
2017-10-21T06:13:32.221Z,0.2
2017-10-21T06:14:32.398Z,0.2
2017-10-21T06:15:32.262Z,0.2
2017-10-21T06:16:32.429Z,0.2
2017-10-21T06:17:32.204Z,0.2
2017-10-21T06:18:32.184Z,0.1
2017-10-21T06:19:32.231Z,0.1
2017-10-21T06:20:32.176Z,0.1
2017-10-21T06:21:34.730Z,0.1
2017-10-21T06:22:32.198Z,0.1
2017-10-21T06:23:32.183Z,0.1
2017-10-21T06:24:32.238Z,0.1
2017-10-21T06:25:32.238Z,0.1
2017-10-21T06:26:32.194Z,0.1
2017-10-21T06:27:32.189Z,0.1
2017-10-21T06:28:32.186Z,0.1
2017-10-21T06:29:32.254Z,0
2017-10-21T06:30:32.196Z,0
2017-10-21T06:31:32.196Z,0
2017-10-21T06:32:32.179Z,0
2017-10-21T06:33:32.176Z,0
2017-10-21T06:34:32.246Z,0
2017-10-21T06:35:32.181Z,0
2017-10-21T06:36:32.584Z,0
2017-10-21T06:37:32.380Z,0
2017-10-21T06:38:34.634Z,0
2017-10-21T06:39:32.405Z,0
2017-10-21T06:40:32.288Z,0
2017-10-21T06:41:32.177Z,0
2017-10-21T06:42:32.221Z,0
2017-10-21T06:43:32.196Z,0
2017-10-21T06:44:32.240Z,0
2017-10-21T06:45:32.410Z,0
2017-10-21T06:46:32.784Z,0
2017-10-21T06:47:32.197Z,0
2017-10-21T06:48:32.264Z,0
2017-10-21T06:49:32.205Z,0
2017-10-21T06:50:32.222Z,0
2017-10-21T06:51:32.265Z,0
2017-10-21T06:52:32.382Z,0
2017-10-21T06:53:32.259Z,0
2017-10-21T06:54:32.228Z,0
2017-10-21T06:55:34.488Z,0
2017-10-21T06:56:32.323Z,0
2017-10-21T06:57:32.341Z,0
2017-10-21T06:58:32.188Z,0
2017-10-21T06:59:32.186Z,0
2017-10-21T07:00:32.189Z,0
2017-10-21T07:01:32.843Z,0
2017-10-21T07:02:32.170Z,0
2017-10-21T07:03:32.228Z,0
2017-10-21T07:04:32.397Z,0
2017-10-21T07:05:32.388Z,0
2017-10-21T07:06:32.392Z,0
2017-10-21T07:07:32.224Z,0
2017-10-21T07:08:32.205Z,0
2017-10-21T07:09:32.391Z,0
2017-10-21T07:10:32.241Z,0
2017-10-21T07:11:32.212Z,0
2017-10-21T07:12:32.190Z,0
2017-10-21T07:13:32.208Z,0
2017-10-21T07:14:32.208Z,0
2017-10-21T07:15:32.371Z,0
2017-10-21T07:16:32.228Z,0
2017-10-21T07:17:32.307Z,0
2017-10-21T07:18:32.243Z,0
2017-10-21T07:19:34.336Z,0
2017-10-21T07:20:32.203Z,0
2017-10-21T07:21:32.252Z,0
2017-10-21T07:22:32.221Z,0
2017-10-21T07:23:32.180Z,0
2017-10-21T07:24:32.163Z,0
2017-10-21T07:25:32.188Z,0
2017-10-21T07:26:32.157Z,0
2017-10-21T07:27:32.169Z,0
2017-10-21T07:28:32.181Z,0
2017-10-21T07:29:32.155Z,0
2017-10-21T07:30:32.156Z,0
2017-10-21T07:31:32.160Z,0
2017-10-21T07:32:32.182Z,0
2017-10-21T07:33:32.158Z,0
2017-10-21T07:34:32.170Z,0
2017-10-21T07:35:32.160Z,0
2017-10-21T07:36:32.170Z,0
2017-10-21T07:37:32.177Z,0
2017-10-21T07:38:32.179Z,0
2017-10-21T07:39:32.154Z,0
2017-10-21T07:40:32.178Z,0
2017-10-21T07:41:32.178Z,0
2017-10-21T07:42:32.198Z,0
2017-10-21T07:43:32.158Z,0
2017-10-21T07:44:32.179Z,0
2017-10-21T07:45:32.172Z,0
2017-10-21T07:46:32.150Z,0
2017-10-21T07:47:32.177Z,0
2017-10-21T07:48:32.149Z,0
2017-10-21T07:49:32.158Z,0
2017-10-21T07:50:32.171Z,0
2017-10-21T07:51:32.155Z,0
2017-10-21T07:52:32.163Z,0
2017-10-21T07:53:32.169Z,0
2017-10-21T07:54:32.152Z,0
2017-10-21T07:55:32.198Z,0
2017-10-21T07:56:32.174Z,0
2017-10-21T07:57:32.168Z,0
2017-10-21T07:58:32.162Z,0
2017-10-21T07:59:32.181Z,0
2017-10-21T08:00:32.212Z,0
2017-10-21T08:01:32.162Z,0
2017-10-21T08:02:32.149Z,0
2017-10-21T08:03:32.153Z,0
2017-10-21T08:04:32.168Z,0
2017-10-21T08:05:32.229Z,0
2017-10-21T08:06:32.168Z,0
2017-10-21T08:07:32.167Z,0
2017-10-21T08:08:32.147Z,0
2017-10-21T08:09:32.158Z,0
2017-10-21T08:10:32.201Z,0
2017-10-21T08:11:32.163Z,0
2017-10-21T08:12:32.146Z,0
2017-10-21T08:13:32.147Z,0
2017-10-21T08:14:32.211Z,0
2017-10-21T08:15:32.146Z,0
2017-10-21T08:16:32.194Z,0
2017-10-21T08:17:32.166Z,0
2017-10-21T08:18:32.157Z,0.5
2017-10-21T08:19:32.145Z,0.5
2017-10-21T08:20:32.166Z,0.6
2017-10-21T08:21:32.221Z,1
2017-10-21T08:22:32.145Z,1.4
2017-10-21T08:23:32.156Z,1.8
2017-10-21T08:24:32.150Z,1.9
2017-10-21T08:25:32.209Z,1.8
2017-10-21T08:26:32.226Z,2.2
2017-10-21T08:27:35.406Z,2.4
2017-10-21T08:28:36.441Z,2.3
2017-10-21T08:29:34.233Z,2.1
2017-10-21T08:30:32.143Z,2
2017-10-21T08:31:32.189Z,1.8
2017-10-21T08:32:32.158Z,2.1
2017-10-21T08:33:32.141Z,2.8
2017-10-21T08:34:32.158Z,2.8
2017-10-21T08:35:32.148Z,2.7
2017-10-21T08:36:32.158Z,2.7
2017-10-21T08:37:32.161Z,2.5
2017-10-21T08:38:32.146Z,2.5
2017-10-21T08:39:32.152Z,3.2
2017-10-21T08:40:32.145Z,3.5
2017-10-21T08:41:32.144Z,3.5
2017-10-21T08:42:32.154Z,3.4
2017-10-21T08:43:32.167Z,3.3
2017-10-21T08:44:32.151Z,3.6
2017-10-21T08:45:32.145Z,3.4
2017-10-21T08:46:32.144Z,3.5
2017-10-21T08:47:32.165Z,3.3
2017-10-21T08:48:32.161Z,3.3
2017-10-21T08:49:32.162Z,3.4
2017-10-21T08:50:32.153Z,3.2
2017-10-21T08:51:32.149Z,3.1
2017-10-21T08:52:32.164Z,3.4
2017-10-21T08:53:32.140Z,3.5
2017-10-21T08:54:32.138Z,3.2
2017-10-21T08:55:32.136Z,3
2017-10-21T08:56:32.153Z,2.7
2017-10-21T08:57:32.146Z,2.7
2017-10-21T08:58:32.162Z,2.9
2017-10-21T08:59:32.141Z,2.7
2017-10-21T09:00:32.135Z,2.8
2017-10-21T09:01:32.153Z,2.8
2017-10-21T09:02:32.139Z,2.6
2017-10-21T09:03:32.159Z,2.4
2017-10-21T09:04:32.140Z,2.3
2017-10-21T09:05:32.149Z,2.1
2017-10-21T09:06:32.148Z,1.9
2017-10-21T09:07:32.139Z,2.1
2017-10-21T09:08:32.139Z,2
2017-10-21T09:09:32.151Z,2
2017-10-21T09:10:32.148Z,1.9
2017-10-21T09:11:32.135Z,1.7
2017-10-21T09:12:32.139Z,1.6
2017-10-21T09:13:32.157Z,1.6
2017-10-21T09:14:32.140Z,1.5
2017-10-21T09:15:32.135Z,1.4
2017-10-21T09:16:32.152Z,1.2
2017-10-21T09:17:32.143Z,1.2
2017-10-21T09:18:32.146Z,1.2
2017-10-21T09:19:32.137Z,1.1
2017-10-21T09:20:32.133Z,1
2017-10-21T09:21:32.155Z,1
2017-10-21T09:22:32.135Z,0.9
2017-10-21T09:23:32.156Z,1.5
2017-10-21T09:24:32.145Z,1.5
2017-10-21T09:25:32.135Z,1.4
2017-10-21T09:26:32.158Z,1.6
2017-10-21T09:27:32.131Z,1.6
2017-10-21T09:28:32.135Z,1.4
2017-10-21T09:29:32.149Z,1.4
2017-10-21T09:30:32.147Z,1.6
2017-10-21T09:31:32.130Z,1.5
2017-10-21T09:32:32.140Z,1.6
2017-10-21T09:33:32.146Z,1.6
2017-10-21T09:34:32.131Z,1.4
2017-10-21T09:35:32.150Z,1.3
2017-10-21T09:36:32.157Z,1.3
2017-10-21T09:37:32.139Z,1.3
2017-10-21T09:38:32.126Z,1.3
2017-10-21T09:39:32.128Z,1.2
2017-10-21T09:40:32.153Z,1.6
2017-10-21T09:41:32.131Z,2.1
2017-10-21T09:42:32.147Z,2.2
2017-10-21T09:43:32.137Z,2.2
2017-10-21T09:44:32.249Z,2.1
2017-10-21T09:45:32.155Z,2.5
2017-10-21T09:46:32.134Z,3.4
2017-10-21T09:47:32.128Z,3.8
2017-10-21T09:48:32.147Z,4.1
2017-10-21T09:49:32.129Z,4.2
2017-10-21T09:50:32.666Z,3.9
2017-10-21T09:51:32.151Z,4.2
2017-10-21T09:52:32.146Z,4.2
2017-10-21T09:53:32.149Z,4.1
2017-10-21T09:54:32.147Z,4.5
2017-10-21T09:55:32.129Z,4.6
2017-10-21T09:56:32.151Z,4.5
2017-10-21T09:57:32.147Z,4.5
2017-10-21T09:58:32.128Z,4.3
2017-10-21T09:59:32.143Z,4.3
2017-10-21T10:00:32.153Z,4.5
2017-10-21T10:01:32.131Z,4.8
2017-10-21T10:02:32.128Z,5
2017-10-21T10:03:32.130Z,6
2017-10-21T10:04:32.130Z,5.8
2017-10-21T10:05:32.148Z,5.7
2017-10-21T10:06:32.146Z,5.4
2017-10-21T10:07:32.133Z,5.2
2017-10-21T10:08:32.144Z,4.8
2017-10-21T10:09:32.147Z,4.6
2017-10-21T10:10:32.137Z,4.3
2017-10-21T10:11:32.143Z,4.1
2017-10-21T10:12:32.204Z,3.8
2017-10-21T10:13:32.116Z,3.7
2017-10-21T10:14:32.147Z,3.6
2017-10-21T10:15:32.137Z,3.4
2017-10-21T10:16:32.136Z,3.8
2017-10-21T10:17:32.200Z,3.7
2017-10-21T10:18:32.142Z,3.5
2017-10-21T10:19:32.140Z,3.6
2017-10-21T10:20:32.146Z,4
2017-10-21T10:21:32.133Z,4.4
2017-10-21T10:22:32.279Z,4.2
2017-10-21T10:23:32.144Z,3.9
2017-10-21T10:24:32.153Z,4.1
2017-10-21T10:25:32.130Z,4.4
2017-10-21T10:26:32.155Z,4.1
2017-10-21T10:27:32.187Z,3.9
2017-10-21T10:28:32.129Z,3.7
2017-10-21T10:29:32.133Z,3.8
2017-10-21T10:30:32.129Z,4.3
2017-10-21T10:31:32.134Z,4
2017-10-21T10:32:32.133Z,3.7
2017-10-21T10:33:32.896Z,3.8
2017-10-21T10:34:32.216Z,3.5
2017-10-21T10:35:32.175Z,3.9
2017-10-21T10:36:32.213Z,3.8
2017-10-21T10:37:32.237Z,4
2017-10-21T10:38:32.179Z,4.2
2017-10-21T10:39:35.459Z,3.8
2017-10-21T10:40:32.185Z,3.5
2017-10-21T10:41:32.327Z,3.4
2017-10-21T10:42:32.149Z,3.1
2017-10-21T10:43:32.149Z,3.4
2017-10-21T10:44:32.142Z,3.1
2017-10-21T10:45:32.160Z,3
2017-10-21T10:46:32.132Z,3
2017-10-21T10:47:32.122Z,3.3
2017-10-21T10:48:32.126Z,3.3
2017-10-21T10:49:32.126Z,3.2
2017-10-21T10:50:32.126Z,2.9
2017-10-21T10:51:32.137Z,3.3
2017-10-21T10:52:32.140Z,4
2017-10-21T10:53:32.149Z,3.8
2017-10-21T10:54:32.120Z,3.7
2017-10-21T10:55:32.149Z,3.3
2017-10-21T10:56:32.122Z,3.1
2017-10-21T10:57:32.145Z,3.5
2017-10-21T10:58:32.135Z,3.4
2017-10-21T10:59:32.141Z,3.1
2017-10-21T11:00:32.143Z,3.4
2017-10-21T11:01:32.121Z,3.7
2017-10-21T11:02:32.146Z,4.6
2017-10-21T11:03:32.181Z,5
2017-10-21T11:04:32.142Z,4.9
2017-10-21T11:05:32.131Z,4.6
2017-10-21T11:06:32.133Z,4.7
2017-10-21T11:07:32.125Z,5.3
2017-10-21T11:08:32.137Z,6.1
2017-10-21T11:09:32.143Z,6.9
2017-10-21T11:10:32.124Z,7.8
2017-10-21T11:11:32.119Z,7.6
2017-10-21T11:12:32.129Z,7.7
2017-10-21T11:13:32.191Z,8.7
2017-10-21T11:14:32.137Z,9.8
2017-10-21T11:15:32.140Z,9.8
2017-10-21T11:16:32.146Z,10.4
2017-10-21T11:17:32.153Z,10.7
2017-10-21T11:18:32.191Z,11.1
2017-10-21T11:19:32.129Z,10.6
2017-10-21T11:20:32.117Z,10.5
2017-10-21T11:21:32.120Z,10.5
2017-10-21T11:22:32.135Z,10.5
2017-10-21T11:23:32.188Z,10.9
2017-10-21T11:24:32.123Z,11.1
2017-10-21T11:25:32.123Z,10.7
2017-10-21T11:26:32.129Z,10.4
2017-10-21T11:27:32.123Z,9.8
2017-10-21T11:28:32.202Z,10
2017-10-21T11:29:32.133Z,9.9
2017-10-21T11:30:32.122Z,9.5
2017-10-21T11:31:32.126Z,9.6
2017-10-21T11:32:32.130Z,10
2017-10-21T11:33:32.183Z,10.4
2017-10-21T11:34:32.121Z,9.9
2017-10-21T11:35:32.133Z,9.4
2017-10-21T11:36:32.123Z,10.1
2017-10-21T11:37:32.133Z,10.4
2017-10-21T11:38:32.169Z,10.3
2017-10-21T11:39:32.113Z,9.8
2017-10-21T11:40:32.121Z,9.5
2017-10-21T11:45:32.170Z,8.2
2017-10-21T11:46:32.132Z,7.8
2017-10-21T11:47:32.110Z,7.3
2017-10-21T11:48:32.111Z,7.4
2017-10-21T11:49:32.158Z,7.5
2017-10-21T11:50:32.116Z,7.9
2017-10-21T11:51:32.138Z,8.5
2017-10-21T11:52:32.128Z,8.2
2017-10-21T11:53:32.119Z,7.8
2017-10-21T11:54:32.200Z,7.3
2017-10-21T11:55:32.107Z,6.7
2017-10-21T11:56:32.134Z,6.2
2017-10-21T11:57:32.131Z,6.4
2017-10-21T11:58:32.125Z,6.2
2017-10-21T11:59:32.192Z,5.9
2017-10-21T12:00:32.136Z,6.1
2017-10-21T12:01:32.113Z,5.6
2017-10-21T12:02:32.134Z,5.1
2017-10-21T12:03:32.126Z,5
2017-10-21T12:04:32.179Z,4.6
2017-10-21T12:05:32.117Z,4.3
2017-10-21T12:06:32.227Z,3.9
2017-10-21T12:07:32.120Z,3.8
2017-10-21T12:08:32.132Z,3.7
2017-10-21T12:09:32.178Z,3.3
2017-10-21T12:10:32.131Z,3.2
2017-10-21T12:11:32.132Z,3.1
2017-10-21T12:12:32.116Z,3
2017-10-21T12:13:32.122Z,3
2017-10-21T12:14:32.159Z,3.3
2017-10-21T12:15:32.111Z,3.5
2017-10-21T12:16:32.127Z,3.9
2017-10-21T12:17:32.109Z,4.2
2017-10-21T12:18:32.128Z,4.1
2017-10-21T12:19:32.135Z,4.4
2017-10-21T12:20:32.109Z,4.4
2017-10-21T12:21:32.121Z,4.6
2017-10-21T12:22:32.112Z,4.6
2017-10-21T12:23:32.103Z,4.6
2017-10-21T12:24:32.136Z,4.4
2017-10-21T12:25:32.101Z,5.3
2017-10-21T12:26:32.108Z,5.7
2017-10-21T12:27:32.126Z,5.9
2017-10-21T12:28:32.108Z,5.9
2017-10-21T12:29:32.123Z,6.1
2017-10-21T12:30:32.105Z,7.3
2017-10-21T12:31:32.105Z,7.2
2017-10-21T12:32:32.109Z,7.6
2017-10-21T12:33:32.126Z,7.5
2017-10-21T12:34:32.109Z,7.4
2017-10-21T12:35:32.115Z,7.1
2017-10-21T12:36:32.117Z,7
2017-10-21T12:37:32.106Z,7.1
2017-10-21T12:38:32.128Z,7.6
2017-10-21T12:39:32.105Z,7.5
2017-10-21T12:40:32.110Z,7.8
2017-10-21T12:41:32.104Z,8.2
2017-10-21T12:42:32.104Z,8.4
2017-10-21T12:43:32.124Z,8.8
2017-10-21T12:44:32.120Z,8.6
2017-10-21T12:45:32.120Z,8.5
2017-10-21T12:46:32.100Z,8.2
2017-10-21T12:47:32.128Z,7.7
2017-10-21T12:48:32.109Z,7.7
2017-10-21T12:49:32.161Z,8
2017-10-21T12:50:32.103Z,7.8
2017-10-21T12:51:32.100Z,7.5
2017-10-21T12:52:32.121Z,7
2017-10-21T12:53:32.099Z,6.4
2017-10-21T12:54:32.100Z,6.5
2017-10-21T12:55:32.117Z,6
2017-10-21T12:56:32.101Z,6
2017-10-21T12:57:32.111Z,6
2017-10-21T12:58:32.100Z,5.5
2017-10-21T12:59:32.111Z,5
2017-10-21T13:00:32.110Z,4.9
2017-10-21T13:01:32.108Z,4.5
2017-10-21T13:02:32.118Z,4.1
2017-10-21T13:03:32.103Z,3.8
2017-10-21T13:04:32.119Z,3.5
2017-10-21T13:05:32.124Z,3.5
2017-10-21T13:06:32.123Z,3.3
2017-10-21T13:07:32.119Z,3.5
2017-10-21T13:08:32.136Z,3.4
2017-10-21T13:09:32.115Z,3.4
2017-10-21T13:10:32.094Z,3.5
2017-10-21T13:11:32.109Z,3.9
2017-10-21T13:12:32.095Z,4.3
2017-10-21T13:13:32.118Z,4.5
2017-10-21T13:14:32.101Z,4.5
2017-10-21T13:15:32.111Z,4.6
2017-10-21T13:16:32.116Z,4.7
2017-10-21T13:17:32.102Z,4.3
2017-10-21T13:18:32.110Z,4.1
2017-10-21T13:19:32.099Z,4.4
2017-10-21T13:20:32.159Z,4.6
2017-10-21T13:21:32.098Z,4.6
2017-10-21T13:22:32.114Z,4.8
2017-10-21T13:23:32.096Z,5
2017-10-21T13:24:32.173Z,5.1
2017-10-21T13:25:32.091Z,5.3
2017-10-21T13:26:32.111Z,5.4
2017-10-21T13:27:32.114Z,5.1
2017-10-21T13:28:32.098Z,4.9
2017-10-21T13:29:32.106Z,4.7
2017-10-21T13:30:32.092Z,5
2017-10-21T13:31:32.091Z,4.9
2017-10-21T13:32:32.122Z,4.6
2017-10-21T13:33:32.102Z,4.5
2017-10-21T13:34:32.113Z,4.8
2017-10-21T13:35:32.087Z,4.8
2017-10-21T13:36:32.109Z,4.6
2017-10-21T13:37:32.092Z,4.2
2017-10-21T13:38:32.099Z,4.3
2017-10-21T13:39:32.109Z,4.3
2017-10-21T13:40:32.148Z,4
2017-10-21T13:41:32.092Z,3.8
2017-10-21T13:42:32.112Z,4.1
2017-10-21T13:43:32.091Z,4
2017-10-21T13:44:32.099Z,3.8
2017-10-21T13:45:32.173Z,3.8
2017-10-21T13:46:32.112Z,4
2017-10-21T13:47:32.094Z,4.4
2017-10-21T13:48:32.092Z,4.4
2017-10-21T13:49:32.108Z,4.5
2017-10-21T13:50:32.158Z,4.3
2017-10-21T13:51:32.089Z,4.4
2017-10-21T13:52:32.087Z,4.3
2017-10-21T13:53:32.089Z,4.6
2017-10-21T13:54:32.086Z,4.5
2017-10-21T13:55:32.167Z,5.1
2017-10-21T13:56:32.178Z,4.9
2017-10-21T13:57:32.087Z,4.5
2017-10-21T13:58:32.082Z,4.5
2017-10-21T13:59:32.092Z,4.8
2017-10-21T14:00:32.183Z,4.6
2017-10-21T14:01:32.107Z,4.3
2017-10-21T14:06:32.128Z,5.9
2017-10-21T14:07:32.091Z,6.1
2017-10-21T14:08:32.107Z,6.5